createdAt,value
2022-11-30T00:03:02.722Z,102240.13
2022-11-30T00:06:07.360Z,102248.66
2022-11-30T00:09:09.730Z,102242.22
2022-11-30T00:12:11.928Z,102243.72
2022-11-30T00:15:17.155Z,102231.94
2022-11-30T00:18:19.125Z,102241.03
2022-11-30T00:21:21.376Z,102227.53
2022-11-30T00:24:24.543Z,102245.59
2022-11-30T00:27:28.217Z,102248.25
2022-11-30T00:30:30.899Z,102238.41
2022-11-30T00:33:35.599Z,102259.91
2022-11-30T00:36:37.815Z,102242.91
2022-11-30T00:39:39.945Z,102248.72
2022-11-30T00:42:42.955Z,102246.72
2022-11-30T00:45:45.166Z,102246.41
2022-11-30T00:48:47.435Z,102237.03
2022-11-30T00:51:49.639Z,102239.25
2022-11-30T00:54:51.778Z,102228.22
2022-11-30T00:57:54.146Z,102233.34
2022-11-30T01:00:56.357Z,102247.78
2022-11-30T01:03:58.773Z,102252.91
2022-11-30T01:07:01.469Z,102223.78
2022-11-30T01:10:04.092Z,102240.94
2022-11-30T01:13:06.220Z,102225.03
2022-11-30T01:16:10.564Z,102244.06
2022-11-30T01:19:12.772Z,102228.44
2022-11-30T01:22:14.817Z,102235.41
2022-11-30T01:25:16.887Z,102236.22
2022-11-30T01:28:19.267Z,102223.94
2022-11-30T01:31:23.759Z,102237.34
2022-11-30T01:34:25.941Z,102233.50
2022-11-30T01:37:30.631Z,102244.28
2022-11-30T01:40:32.644Z,102240.44
2022-11-30T01:43:49.954Z,102235.44
2022-11-30T01:47:05.636Z,102244.38
2022-11-30T01:50:15.539Z,102226.84
2022-11-30T01:53:17.573Z,102224.44
2022-11-30T01:56:19.744Z,102230.16
2022-11-30T01:59:24.152Z,102208.16
2022-11-30T02:02:40.503Z,102228.34
2022-11-30T02:05:44.132Z,102215.25
2022-11-30T02:08:46.535Z,102221.66
2022-11-30T02:11:49.752Z,102229.09
2022-11-30T02:14:57.877Z,102239.22
2022-11-30T02:18:12.235Z,102230.53
2022-11-30T02:21:15.612Z,102237.38
2022-11-30T02:24:54.730Z,102247.03
2022-11-30T02:28:03.011Z,102240.31
2022-11-30T02:31:08.955Z,102239.72
2022-11-30T02:34:15.733Z,102235.53
2022-11-30T02:37:19.478Z,102228.13
2022-11-30T02:40:21.659Z,102223.47
2022-11-30T02:43:26.691Z,102237.50
2022-11-30T02:46:36.310Z,102230.81
2022-11-30T02:50:07.644Z,102232.38
2022-11-30T02:53:14.817Z,102228.78
2022-11-30T02:56:17.963Z,102230.34
2022-11-30T02:59:20.997Z,102218.00
2022-11-30T03:02:23.122Z,102227.59
2022-11-30T03:05:26.171Z,102225.75
2022-11-30T03:08:28.276Z,102229.53
2022-11-30T03:11:31.413Z,102240.72
2022-11-30T03:14:33.404Z,102214.78
2022-11-30T03:17:36.388Z,102239.13
2022-11-30T03:20:43.838Z,102244.38
2022-11-30T03:23:46.141Z,102227.59
2022-11-30T03:26:48.191Z,102222.56
2022-11-30T03:29:50.239Z,102219.75
2022-11-30T03:32:52.855Z,102240.84
2022-11-30T03:36:09.437Z,102245.97
2022-11-30T03:39:11.594Z,102245.69
2022-11-30T03:42:13.625Z,102245.00
2022-11-30T03:45:15.819Z,102230.75
2022-11-30T03:48:17.831Z,102242.81
2022-11-30T03:51:20.171Z,102247.84
2022-11-30T03:54:22.449Z,102253.59
2022-11-30T03:57:27.323Z,102253.69
2022-11-30T04:00:29.363Z,102239.63
2022-11-30T04:03:31.487Z,102243.91
2022-11-30T04:06:34.543Z,102234.25
2022-11-30T04:09:36.476Z,102244.41
2022-11-30T04:12:38.561Z,102242.66
2022-11-30T04:15:40.670Z,102243.47
2022-11-30T04:18:42.707Z,102264.16
2022-11-30T04:21:44.847Z,102267.34
2022-11-30T04:24:47.179Z,102252.47
2022-11-30T04:27:49.439Z,102262.00
2022-11-30T04:30:52.403Z,102260.56
2022-11-30T04:33:54.683Z,102273.44
2022-11-30T04:37:00.226Z,102275.53
2022-11-30T04:40:02.907Z,102271.59
2022-11-30T04:43:07.155Z,102274.66
2022-11-30T04:46:09.295Z,102285.75
2022-11-30T04:49:11.420Z,102289.44
2022-11-30T04:52:13.697Z,102279.66
2022-11-30T04:55:19.439Z,102281.97
2022-11-30T04:58:21.708Z,102288.75
2022-11-30T05:01:23.868Z,102292.69
2022-11-30T05:04:26.161Z,102284.59
2022-11-30T05:07:28.277Z,102266.56
2022-11-30T05:10:32.175Z,102260.25
2022-11-30T05:13:34.984Z,102259.50
2022-11-30T05:16:37.022Z,102256.94
2022-11-30T05:19:40.090Z,102255.00
2022-11-30T05:22:42.185Z,102252.50
2022-11-30T05:25:44.503Z,102248.03
2022-11-30T05:28:46.524Z,102242.47
2022-11-30T05:31:48.797Z,102249.91
2022-11-30T05:34:52.016Z,102230.72
2022-11-30T05:37:54.724Z,102246.84
2022-11-30T05:41:01.719Z,102265.44
2022-11-30T05:44:05.251Z,102269.66
2022-11-30T05:47:07.409Z,102273.53
2022-11-30T05:50:09.830Z,102272.06
2022-11-30T05:53:11.924Z,102277.34
2022-11-30T05:56:17.578Z,102284.38
2022-11-30T05:59:19.577Z,102284.84
2022-11-30T06:02:27.754Z,102282.75
2022-11-30T06:05:30.401Z,102300.31
2022-11-30T06:08:32.500Z,102286.09
2022-11-30T06:11:35.744Z,102280.50
2022-11-30T06:14:38.053Z,102293.19
2022-11-30T06:17:40.241Z,102297.25
2022-11-30T06:20:43.974Z,102289.03
2022-11-30T06:23:46.151Z,102277.44
2022-11-30T06:26:48.599Z,102293.69
2022-11-30T06:29:51.301Z,102301.06
2022-11-30T06:32:53.945Z,102305.50
2022-11-30T06:35:56.627Z,102281.84
2022-11-30T06:38:59.085Z,102297.25
2022-11-30T06:42:01.255Z,102289.72
2022-11-30T06:45:04.244Z,102288.00
2022-11-30T06:48:06.447Z,102300.75
2022-11-30T06:51:09.638Z,102281.84
2022-11-30T06:54:11.932Z,102297.47
2022-11-30T06:57:14.253Z,102337.09
2022-11-30T07:00:17.120Z,102333.19
2022-11-30T07:03:19.336Z,102308.16
2022-11-30T07:06:21.380Z,102310.63
2022-11-30T07:09:23.454Z,102313.50
2022-11-30T07:12:26.284Z,102303.34
2022-11-30T07:15:28.285Z,102324.56
2022-11-30T07:18:32.850Z,102333.22
2022-11-30T07:21:35.153Z,102331.47
2022-11-30T07:25:06.592Z,102337.09
2022-11-30T07:28:09.122Z,102330.69
2022-11-30T07:31:22.349Z,102345.16
2022-11-30T07:34:26.217Z,102320.69
2022-11-30T07:37:28.462Z,102312.34
2022-11-30T07:40:30.675Z,102331.25
2022-11-30T07:43:33.546Z,102324.94
2022-11-30T07:46:40.797Z,102332.03
2022-11-30T07:49:43.642Z,102340.25
2022-11-30T07:52:45.630Z,102332.28
2022-11-30T07:55:49.672Z,102329.88
2022-11-30T07:59:00.268Z,102317.94
2022-11-30T08:02:03.047Z,102316.94
2022-11-30T08:05:05.592Z,102311.16
2022-11-30T08:08:07.929Z,102310.13
2022-11-30T08:11:12.514Z,102315.09
2022-11-30T08:14:14.808Z,102301.03
2022-11-30T08:17:16.986Z,102331.03
2022-11-30T08:20:21.337Z,102328.00
2022-11-30T08:23:25.943Z,102316.44
2022-11-30T08:26:30.610Z,102325.94
2022-11-30T08:29:38.087Z,102305.72
2022-11-30T08:32:43.191Z,102335.94
2022-11-30T08:35:48.742Z,102322.28
2022-11-30T08:38:52.440Z,102323.63
2022-11-30T08:41:58.855Z,102317.53
2022-11-30T08:45:01.217Z,102320.94
2022-11-30T08:48:03.534Z,102345.78
2022-11-30T08:51:08.974Z,102326.75
2022-11-30T08:54:11.274Z,102333.22
2022-11-30T08:57:16.115Z,102334.41
2022-11-30T09:00:20.320Z,102337.06
2022-11-30T09:03:22.370Z,102323.16
2022-11-30T09:06:30.939Z,102340.56
2022-11-30T09:13:27.732Z,102344.03
2022-11-30T09:16:30.008Z,102334.72
2022-11-30T09:20:54.841Z,102338.75
2022-11-30T09:23:57.789Z,102326.78
2022-11-30T09:27:05.276Z,102332.31
2022-11-30T09:30:07.975Z,102320.44
2022-11-30T09:33:10.134Z,102327.22
2022-11-30T09:36:15.242Z,102331.81
2022-11-30T09:39:17.288Z,102317.69
2022-11-30T09:42:27.082Z,102337.84
2022-11-30T09:45:31.913Z,102316.63
2022-11-30T09:48:43.282Z,102303.59
2022-11-30T09:51:49.918Z,102312.63
2022-11-30T09:54:52.078Z,102314.31
2022-11-30T09:58:02.360Z,102319.72
2022-11-30T10:01:10.114Z,102328.63
2022-11-30T10:04:23.429Z,102321.88
2022-11-30T10:07:49.599Z,102332.97
2022-11-30T10:11:00.995Z,102307.63
2022-11-30T10:14:14.032Z,102335.28
2022-11-30T10:17:54.826Z,102346.66
2022-11-30T10:21:14.410Z,102342.25
2022-11-30T10:24:44.191Z,102340.09
2022-11-30T10:27:46.153Z,102336.75
2022-11-30T10:30:49.500Z,102341.78
2022-11-30T10:33:55.569Z,102329.28
2022-11-30T10:37:14.342Z,102326.59
2022-11-30T10:40:29.083Z,102316.25
2022-11-30T10:43:43.689Z,102313.66
2022-11-30T10:46:59.209Z,102320.00
2022-11-30T10:50:01.295Z,102314.84
2022-11-30T10:53:03.520Z,102307.38
2022-11-30T10:56:08.369Z,102304.75
2022-11-30T10:59:53.404Z,102310.50
2022-11-30T11:02:55.629Z,102283.91
2022-11-30T11:06:18.174Z,102303.25
2022-11-30T11:09:37.261Z,102292.81
2022-11-30T11:12:39.611Z,102292.38
2022-11-30T11:15:57.870Z,102291.91
2022-11-30T11:18:59.941Z,102291.22
2022-11-30T11:22:14.947Z,102290.34
2022-11-30T11:25:22.806Z,102269.75
2022-11-30T11:28:25.976Z,102276.91
2022-11-30T11:31:38.927Z,102293.53
2022-11-30T11:34:41.114Z,102300.09
2022-11-30T11:37:51.724Z,102306.84
2022-11-30T11:41:07.270Z,102307.22
2022-11-30T11:44:09.195Z,102314.16
2022-11-30T11:47:24.899Z,102306.97
2022-11-30T11:54:02.904Z,102310.69
2022-11-30T11:57:19.052Z,102322.63
2022-11-30T12:00:25.042Z,102323.13
2022-11-30T12:03:53.885Z,102306.84
2022-11-30T12:06:58.979Z,102321.13
2022-11-30T12:13:49.398Z,102302.03
2022-11-30T12:17:34.921Z,102319.75
2022-11-30T12:20:50.282Z,102323.41
2022-11-30T12:24:10.343Z,102315.06
2022-11-30T12:27:50.483Z,102316.56
2022-11-30T12:31:15.054Z,102317.88
2022-11-30T12:34:26.829Z,102301.53
2022-11-30T12:37:31.529Z,102324.13
2022-11-30T12:40:38.683Z,102298.81
2022-11-30T12:44:13.303Z,102318.00
2022-11-30T12:47:37.195Z,102324.84
2022-11-30T12:50:59.768Z,102328.97
2022-11-30T12:54:14.746Z,102332.09
2022-11-30T12:57:43.749Z,102328.28
2022-11-30T13:01:30.477Z,102319.19
2022-11-30T13:04:44.191Z,102323.03
2022-11-30T13:07:54.810Z,102321.16
2022-11-30T13:11:01.700Z,102310.06
2022-11-30T13:14:10.064Z,102337.09
2022-11-30T13:17:19.609Z,102328.34
2022-11-30T13:20:45.367Z,102342.81
2022-11-30T13:23:53.019Z,102343.63
2022-11-30T13:27:18.385Z,102336.13
2022-11-30T13:30:31.965Z,102346.22
2022-11-30T13:33:33.911Z,102349.81
2022-11-30T13:36:44.841Z,102335.47
2022-11-30T13:39:50.579Z,102352.13
2022-11-30T13:42:56.336Z,102343.16
2022-11-30T13:46:05.938Z,102322.97
2022-11-30T13:49:22.279Z,102332.91
2022-11-30T13:52:58.552Z,102340.59
2022-11-30T13:56:07.835Z,102323.50
2022-11-30T13:59:24.865Z,102335.59
2022-11-30T14:05:57.627Z,102344.81
2022-11-30T14:08:59.758Z,102322.47
2022-11-30T14:12:34.734Z,102340.59
2022-11-30T14:15:39.477Z,102336.56
2022-11-30T14:18:46.935Z,102341.66
2022-11-30T14:21:49.419Z,102343.63
2022-11-30T14:24:52.904Z,102334.13
2022-11-30T14:27:57.099Z,102345.34
2022-11-30T14:31:00.246Z,102345.84
2022-11-30T14:34:20.577Z,102320.47
2022-11-30T14:37:23.587Z,102331.16
2022-11-30T14:40:29.901Z,102346.06
2022-11-30T14:43:32.086Z,102350.63
2022-11-30T14:46:44.605Z,102349.19
2022-11-30T14:49:52.186Z,102339.66
2022-11-30T14:53:26.594Z,102352.81
2022-11-30T14:56:41.055Z,102348.78
2022-11-30T15:00:03.876Z,102358.19
2022-11-30T15:03:18.767Z,102360.50
2022-11-30T15:06:27.137Z,102365.28
2022-11-30T15:09:32.647Z,102362.69
2022-11-30T15:12:38.230Z,102365.13
2022-11-30T15:15:50.615Z,102354.91
2022-11-30T15:18:54.727Z,102362.97
2022-11-30T15:21:58.465Z,102355.72
2022-11-30T15:25:02.057Z,102359.94
2022-11-30T15:28:07.522Z,102354.97
2022-11-30T15:31:15.974Z,102364.56
2022-11-30T15:34:20.207Z,102359.31
2022-11-30T15:37:29.761Z,102352.47
2022-11-30T15:40:35.235Z,102366.66
2022-11-30T15:43:40.320Z,102364.72
2022-11-30T15:47:09.209Z,102345.66
2022-11-30T15:50:32.575Z,102341.31
2022-11-30T15:53:53.248Z,102361.72
2022-11-30T15:56:58.923Z,102367.28
2022-11-30T16:00:24.151Z,102377.50
2022-11-30T16:03:26.143Z,102350.34
2022-11-30T16:07:00.580Z,102363.75
2022-11-30T16:10:35.454Z,102354.16
2022-11-30T16:13:40.485Z,102351.34
2022-11-30T16:16:43.654Z,102331.75
2022-11-30T16:19:48.356Z,102362.31
2022-11-30T16:22:51.106Z,102359.44
2022-11-30T16:25:53.983Z,102364.56
2022-11-30T16:28:58.430Z,102345.53
2022-11-30T16:32:00.686Z,102337.59
2022-11-30T16:35:03.303Z,102349.25
2022-11-30T16:38:06.584Z,102366.13
2022-11-30T16:41:23.729Z,102341.19
2022-11-30T16:44:26.264Z,102347.69
2022-11-30T16:47:28.208Z,102355.66
2022-11-30T16:50:34.416Z,102356.84
2022-11-30T16:53:41.479Z,102340.66
2022-11-30T16:56:46.362Z,102366.53
2022-11-30T16:59:48.502Z,102360.13
2022-11-30T17:06:35.423Z,102360.38
2022-11-30T17:09:41.311Z,102350.53
2022-11-30T17:12:55.383Z,102323.50
2022-11-30T17:16:06.647Z,102358.97
2022-11-30T17:19:10.515Z,102367.22
2022-11-30T17:22:23.288Z,102341.19
2022-11-30T17:25:27.460Z,102345.56
2022-11-30T17:28:31.729Z,102341.69
2022-11-30T17:31:33.890Z,102358.53
2022-11-30T17:34:36.691Z,102372.75
2022-11-30T17:37:39.978Z,102362.75
2022-11-30T17:40:44.347Z,102355.91
2022-11-30T17:43:53.997Z,102361.44
2022-11-30T17:46:56.430Z,102363.50
2022-11-30T17:49:59.937Z,102380.53
2022-11-30T17:53:02.275Z,102360.84
2022-11-30T17:56:18.473Z,102381.44
2022-11-30T17:59:20.371Z,102372.56
2022-11-30T18:02:27.007Z,102350.25
2022-11-30T18:05:32.392Z,102378.81
2022-11-30T18:08:35.332Z,102392.00
2022-11-30T18:11:37.402Z,102389.59
2022-11-30T18:14:40.102Z,102386.66
2022-11-30T18:17:42.911Z,102377.34
2022-11-30T18:20:44.903Z,102382.75
2022-11-30T18:23:50.046Z,102387.16
2022-11-30T18:26:52.914Z,102380.19
2022-11-30T18:29:55.157Z,102411.75
2022-11-30T18:32:58.074Z,102416.84
2022-11-30T18:36:01.482Z,102386.81
2022-11-30T18:39:03.863Z,102394.50
2022-11-30T18:42:06.375Z,102384.78
2022-11-30T18:45:08.842Z,102399.19
2022-11-30T18:48:12.524Z,102422.31
2022-11-30T18:51:20.658Z,102404.13
2022-11-30T18:54:25.474Z,102427.50
2022-11-30T18:57:28.650Z,102404.00
2022-11-30T19:00:33.929Z,102423.09
2022-11-30T19:03:37.853Z,102420.13
2022-11-30T19:06:43.920Z,102427.88
2022-11-30T19:09:50.915Z,102415.28
2022-11-30T19:13:18.735Z,102428.09
2022-11-30T19:16:21.287Z,102423.06
2022-11-30T19:19:23.996Z,102409.63
2022-11-30T19:22:30.290Z,102426.25
2022-11-30T19:25:33.089Z,102426.84
2022-11-30T19:28:37.386Z,102409.97
2022-11-30T19:31:40.061Z,102355.47
2022-11-30T19:34:43.005Z,102429.09
2022-11-30T19:37:46.037Z,102434.84
2022-11-30T19:40:48.239Z,102412.81
2022-11-30T19:44:03.144Z,102434.94
2022-11-30T19:47:07.967Z,102435.69
2022-11-30T19:50:10.180Z,102441.69
2022-11-30T19:53:16.263Z,102434.84
2022-11-30T19:56:19.307Z,102430.09
2022-11-30T19:59:22.385Z,102425.44
2022-11-30T20:02:25.403Z,102445.59
2022-11-30T20:05:30.703Z,102423.47
2022-11-30T20:08:32.906Z,102438.31
2022-11-30T20:11:40.630Z,102436.56
2022-11-30T20:14:42.724Z,102435.59
2022-11-30T20:17:45.890Z,102431.72
2022-11-30T20:20:49.885Z,102421.88
2022-11-30T20:23:57.994Z,102433.88
2022-11-30T20:27:01.281Z,102426.88
2022-11-30T20:30:05.535Z,102417.59
2022-11-30T20:39:46.248Z,102437.06
2022-11-30T20:42:48.752Z,102434.00
2022-11-30T20:45:52.532Z,102402.81
2022-11-30T20:48:57.549Z,102414.09
2022-11-30T20:55:40.971Z,102417.63
2022-11-30T20:58:52.105Z,102440.63
2022-11-30T21:02:04.296Z,102443.09
2022-11-30T21:05:14.728Z,102418.59
2022-11-30T21:08:20.194Z,102414.38
2022-11-30T21:11:27.713Z,102435.75
2022-11-30T21:16:16.362Z,102406.78
2022-11-30T21:18:56.500Z,102422.53
2022-11-30T21:21:59.877Z,102433.28
2022-11-30T21:25:05.013Z,102430.97
2022-11-30T21:28:08.362Z,102424.25
2022-11-30T21:31:12.700Z,102435.13
2022-11-30T21:34:17.943Z,102432.19
2022-11-30T21:37:22.537Z,102436.59
2022-11-30T21:40:24.544Z,102447.72
2022-11-30T21:43:29.779Z,102435.63
2022-11-30T21:46:33.299Z,102447.13
2022-11-30T21:49:38.989Z,102441.00
2022-11-30T21:52:42.264Z,102408.34
2022-11-30T21:55:44.353Z,102424.59
2022-11-30T21:58:49.942Z,102429.47
2022-11-30T22:01:52.010Z,102437.31
2022-11-30T22:04:54.026Z,102425.81
2022-11-30T22:07:56.569Z,102421.19
2022-11-30T22:11:03.641Z,102425.19
2022-11-30T22:14:08.022Z,102428.03
2022-11-30T22:17:12.830Z,102417.38
2022-11-30T22:20:18.682Z,102418.34
2022-11-30T22:23:30.491Z,102406.59
2022-11-30T22:26:38.144Z,102429.03
2022-11-30T22:29:40.245Z,102411.53
2022-11-30T22:32:49.978Z,102394.03
2022-11-30T22:35:54.459Z,102390.75
2022-11-30T22:39:00.318Z,102412.16
2022-11-30T22:42:02.364Z,102390.88
2022-11-30T22:45:07.271Z,102396.97
2022-11-30T22:48:10.842Z,102399.56
2022-11-30T22:51:15.604Z,102395.28
2022-11-30T22:54:21.066Z,102404.56
2022-11-30T22:57:23.604Z,102394.91
2022-11-30T23:00:25.965Z,102411.56
2022-11-30T23:03:28.374Z,102408.00
2022-11-30T23:06:30.872Z,102412.06
2022-11-30T23:09:32.953Z,102423.31
2022-11-30T23:12:58.632Z,102421.72
2022-11-30T23:16:00.408Z,102421.84
2022-11-30T23:19:06.758Z,102420.00
2022-11-30T23:22:08.916Z,102412.53
2022-11-30T23:25:11.085Z,102407.16
2022-11-30T23:28:14.046Z,102392.97
2022-11-30T23:31:33.688Z,102409.22
2022-11-30T23:34:38.889Z,102337.22
2022-11-30T23:37:40.911Z,102381.47
2022-11-30T23:40:42.999Z,102410.06
2022-11-30T23:43:47.612Z,102410.59
2022-11-30T23:46:53.706Z,102399.59
2022-11-30T23:49:56.153Z,102427.59
2022-11-30T23:52:58.271Z,102415.84
2022-11-30T23:56:09.350Z,102412.91
2022-11-30T23:59:11.527Z,102414.50
